sensor_id;sensor_type;location;lat;lon;timestamp;temperature;humidity
10447;DHT22;5271;44.422;26.092;2023-05-17T00:02:08;13.90;84.90
10447;DHT22;5271;44.422;26.092;2023-05-17T00:04:35;13.90;85.10
10447;DHT22;5271;44.422;26.092;2023-05-17T00:07:02;13.90;84.80
10447;DHT22;5271;44.422;26.092;2023-05-17T00:09:30;13.90;84.70
10447;DHT22;5271;44.422;26.092;2023-05-17T00:11:57;13.90;84.60
10447;DHT22;5271;44.422;26.092;2023-05-17T00:14:23;13.80;84.50
10447;DHT22;5271;44.422;26.092;2023-05-17T00:16:50;13.70;84.50
10447;DHT22;5271;44.422;26.092;2023-05-17T00:19:17;13.70;84.80
10447;DHT22;5271;44.422;26.092;2023-05-17T00:21:44;13.70;85.00
10447;DHT22;5271;44.422;26.092;2023-05-17T00:24:11;13.60;85.40
10447;DHT22;5271;44.422;26.092;2023-05-17T00:26:39;13.60;85.20
10447;DHT22;5271;44.422;26.092;2023-05-17T00:29:06;13.70;84.90
10447;DHT22;5271;44.422;26.092;2023-05-17T00:31:33;13.60;85.00
10447;DHT22;5271;44.422;26.092;2023-05-17T00:34:00;13.60;85.10
10447;DHT22;5271;44.422;26.092;2023-05-17T00:36:26;13.60;85.00
10447;DHT22;5271;44.422;26.092;2023-05-17T00:38:53;13.60;85.10
10447;DHT22;5271;44.422;26.092;2023-05-17T00:41:20;13.60;85.30
10447;DHT22;5271;44.422;26.092;2023-05-17T00:43:48;13.60;85.10
10447;DHT22;5271;44.422;26.092;2023-05-17T00:46:15;13.60;85.10
10447;DHT22;5271;44.422;26.092;2023-05-17T00:48:42;13.50;85.10
10447;DHT22;5271;44.422;26.092;2023-05-17T00:51:09;13.50;85.30
10447;DHT22;5271;44.422;26.092;2023-05-17T00:53:37;13.50;85.10
10447;DHT22;5271;44.422;26.092;2023-05-17T00:56:04;13.50;85.40
10447;DHT22;5271;44.422;26.092;2023-05-17T00:58:31;13.40;85.30
10447;DHT22;5271;44.422;26.092;2023-05-17T01:01:00;13.40;85.30
10447;DHT22;5271;44.422;26.092;2023-05-17T01:03:27;13.40;85.60
10447;DHT22;5271;44.422;26.092;2023-05-17T01:05:54;13.40;85.50
10447;DHT22;5271;44.422;26.092;2023-05-17T01:08:21;13.30;85.30
10447;DHT22;5271;44.422;26.092;2023-05-17T01:10:53;13.30;85.50
10447;DHT22;5271;44.422;26.092;2023-05-17T01:13:28;13.30;85.20
10447;DHT22;5271;44.422;26.092;2023-05-17T01:16:04;13.30;85.30
10447;DHT22;5271;44.422;26.092;2023-05-17T01:18:37;13.30;85.40
10447;DHT22;5271;44.422;26.092;2023-05-17T01:21:11;13.20;85.50
10447;DHT22;5271;44.422;26.092;2023-05-17T01:23:47;13.30;85.50
10447;DHT22;5271;44.422;26.092;2023-05-17T01:26:33;13.20;85.30
10447;DHT22;5271;44.422;26.092;2023-05-17T01:29:04;13.20;85.20
10447;DHT22;5271;44.422;26.092;2023-05-17T01:31:31;13.20;84.70
10447;DHT22;5271;44.422;26.092;2023-05-17T01:33:58;13.20;85.00
10447;DHT22;5271;44.422;26.092;2023-05-17T01:36:26;13.20;85.00
10447;DHT22;5271;44.422;26.092;2023-05-17T01:38:52;13.10;85.20
10447;DHT22;5271;44.422;26.092;2023-05-17T01:41:22;13.10;85.10
10447;DHT22;5271;44.422;26.092;2023-05-17T01:43:59;13.10;85.00
10447;DHT22;5271;44.422;26.092;2023-05-17T01:46:32;13.10;85.00
10447;DHT22;5271;44.422;26.092;2023-05-17T01:49:09;13.00;84.90
10447;DHT22;5271;44.422;26.092;2023-05-17T01:51:45;13.00;84.90
10447;DHT22;5271;44.422;26.092;2023-05-17T01:54:14;12.90;84.90
10447;DHT22;5271;44.422;26.092;2023-05-17T01:56:47;12.90;85.00
10447;DHT22;5271;44.422;26.092;2023-05-17T01:59:19;12.80;85.10
10447;DHT22;5271;44.422;26.092;2023-05-17T02:01:51;12.80;85.30
10447;DHT22;5271;44.422;26.092;2023-05-17T02:04:19;12.80;86.00
10447;DHT22;5271;44.422;26.092;2023-05-17T02:06:46;12.80;85.30
10447;DHT22;5271;44.422;26.092;2023-05-17T02:09:13;12.80;85.50
10447;DHT22;5271;44.422;26.092;2023-05-17T02:11:40;12.70;85.20
10447;DHT22;5271;44.422;26.092;2023-05-17T02:14:07;12.80;85.50
10447;DHT22;5271;44.422;26.092;2023-05-17T02:16:35;12.70;85.60
10447;DHT22;5271;44.422;26.092;2023-05-17T02:19:02;12.70;85.70
10447;DHT22;5271;44.422;26.092;2023-05-17T02:21:28;12.70;85.50
10447;DHT22;5271;44.422;26.092;2023-05-17T02:23:55;12.70;85.70
10447;DHT22;5271;44.422;26.092;2023-05-17T02:26:22;12.70;85.80
10447;DHT22;5271;44.422;26.092;2023-05-17T02:28:49;12.70;85.90
10447;DHT22;5271;44.422;26.092;2023-05-17T02:31:16;12.60;86.10
10447;DHT22;5271;44.422;26.092;2023-05-17T02:33:44;12.60;86.10
10447;DHT22;5271;44.422;26.092;2023-05-17T02:36:11;12.60;86.30
10447;DHT22;5271;44.422;26.092;2023-05-17T02:38:38;12.60;86.10
10447;DHT22;5271;44.422;26.092;2023-05-17T02:41:05;12.60;86.10
10447;DHT22;5271;44.422;26.092;2023-05-17T02:43:32;12.60;86.90
10447;DHT22;5271;44.422;26.092;2023-05-17T02:45:59;12.50;86.60
10447;DHT22;5271;44.422;26.092;2023-05-17T02:48:25;12.60;86.50
10447;DHT22;5271;44.422;26.092;2023-05-17T02:50:54;12.60;86.80
10447;DHT22;5271;44.422;26.092;2023-05-17T02:53:20;12.50;86.80
10447;DHT22;5271;44.422;26.092;2023-05-17T02:55:47;12.50;87.00
10447;DHT22;5271;44.422;26.092;2023-05-17T02:58:14;12.40;87.10
10447;DHT22;5271;44.422;26.092;2023-05-17T03:00:43;12.40;87.30
10447;DHT22;5271;44.422;26.092;2023-05-17T03:03:10;12.30;87.50
10447;DHT22;5271;44.422;26.092;2023-05-17T03:05:37;12.30;87.70
10447;DHT22;5271;44.422;26.092;2023-05-17T03:08:05;12.20;87.80
10447;DHT22;5271;44.422;26.092;2023-05-17T03:10:32;12.20;88.10
10447;DHT22;5271;44.422;26.092;2023-05-17T03:12:59;12.10;88.20
10447;DHT22;5271;44.422;26.092;2023-05-17T03:15:26;12.10;88.50
10447;DHT22;5271;44.422;26.092;2023-05-17T03:17:54;12.00;88.80
10447;DHT22;5271;44.422;26.092;2023-05-17T03:20:21;12.00;89.00
10447;DHT22;5271;44.422;26.092;2023-05-17T03:22:48;11.90;89.00
10447;DHT22;5271;44.422;26.092;2023-05-17T03:25:16;11.90;89.80
10447;DHT22;5271;44.422;26.092;2023-05-17T03:27:43;11.90;90.00
10447;DHT22;5271;44.422;26.092;2023-05-17T03:30:10;11.90;89.50
10447;DHT22;5271;44.422;26.092;2023-05-17T03:32:38;11.90;89.40
10447;DHT22;5271;44.422;26.092;2023-05-17T03:35:05;11.90;89.40
10447;DHT22;5271;44.422;26.092;2023-05-17T03:37:32;11.90;89.50
10447;DHT22;5271;44.422;26.092;2023-05-17T03:39:59;11.80;89.70
10447;DHT22;5271;44.422;26.092;2023-05-17T03:42:27;11.80;89.70
10447;DHT22;5271;44.422;26.092;2023-05-17T03:44:54;11.80;89.60
10447;DHT22;5271;44.422;26.092;2023-05-17T03:47:21;11.80;89.70
10447;DHT22;5271;44.422;26.092;2023-05-17T03:49:49;11.80;89.70
10447;DHT22;5271;44.422;26.092;2023-05-17T03:52:15;11.80;89.60
10447;DHT22;5271;44.422;26.092;2023-05-17T03:54:42;11.70;90.00
10447;DHT22;5271;44.422;26.092;2023-05-17T03:57:09;11.70;90.10
10447;DHT22;5271;44.422;26.092;2023-05-17T03:59:37;11.60;90.20
10447;DHT22;5271;44.422;26.092;2023-05-17T04:02:04;11.60;90.20
10447;DHT22;5271;44.422;26.092;2023-05-17T04:04:31;11.60;90.30
10447;DHT22;5271;44.422;26.092;2023-05-17T04:06:58;11.60;90.40
10447;DHT22;5271;44.422;26.092;2023-05-17T04:09:25;11.50;90.50
10447;DHT22;5271;44.422;26.092;2023-05-17T04:11:51;11.50;90.40
10447;DHT22;5271;44.422;26.092;2023-05-17T04:14:18;11.60;90.50
10447;DHT22;5271;44.422;26.092;2023-05-17T04:16:48;11.50;90.60
10447;DHT22;5271;44.422;26.092;2023-05-17T04:19:14;11.60;90.50
10447;DHT22;5271;44.422;26.092;2023-05-17T04:21:42;11.50;90.50
10447;DHT22;5271;44.422;26.092;2023-05-17T04:24:10;11.60;90.50
10447;DHT22;5271;44.422;26.092;2023-05-17T04:26:37;11.60;90.70
10447;DHT22;5271;44.422;26.092;2023-05-17T04:29:04;11.60;90.50
10447;DHT22;5271;44.422;26.092;2023-05-17T04:31:31;11.60;90.40
10447;DHT22;5271;44.422;26.092;2023-05-17T04:33:59;11.60;90.40
10447;DHT22;5271;44.422;26.092;2023-05-17T04:36:27;11.60;90.40
10447;DHT22;5271;44.422;26.092;2023-05-17T04:38:54;11.60;90.50
10447;DHT22;5271;44.422;26.092;2023-05-17T04:41:21;11.70;90.50
10447;DHT22;5271;44.422;26.092;2023-05-17T04:43:48;11.70;90.40
10447;DHT22;5271;44.422;26.092;2023-05-17T04:46:15;11.70;90.50
10447;DHT22;5271;44.422;26.092;2023-05-17T04:48:42;11.70;90.50
10447;DHT22;5271;44.422;26.092;2023-05-17T04:51:10;11.70;90.50
10447;DHT22;5271;44.422;26.092;2023-05-17T04:53:37;11.60;90.50
10447;DHT22;5271;44.422;26.092;2023-05-17T04:56:04;11.70;90.40
10447;DHT22;5271;44.422;26.092;2023-05-17T04:58:31;11.80;90.40
10447;DHT22;5271;44.422;26.092;2023-05-17T05:00:58;11.70;90.50
10447;DHT22;5271;44.422;26.092;2023-05-17T05:03:25;11.70;90.70
10447;DHT22;5271;44.422;26.092;2023-05-17T05:05:53;11.70;90.50
10447;DHT22;5271;44.422;26.092;2023-05-17T05:08:22;11.80;90.50
10447;DHT22;5271;44.422;26.092;2023-05-17T05:10:50;11.80;90.50
10447;DHT22;5271;44.422;26.092;2023-05-17T05:13:16;11.80;90.50
10447;DHT22;5271;44.422;26.092;2023-05-17T05:15:43;11.80;90.60
10447;DHT22;5271;44.422;26.092;2023-05-17T05:18:10;11.80;90.60
10447;DHT22;5271;44.422;26.092;2023-05-17T05:20:37;11.70;90.60
10447;DHT22;5271;44.422;26.092;2023-05-17T05:23:04;11.70;90.80
10447;DHT22;5271;44.422;26.092;2023-05-17T05:25:33;11.70;90.80
10447;DHT22;5271;44.422;26.092;2023-05-17T05:28:00;11.70;90.90
10447;DHT22;5271;44.422;26.092;2023-05-17T05:30:27;11.70;90.80
10447;DHT22;5271;44.422;26.092;2023-05-17T05:32:54;11.70;90.80
10447;DHT22;5271;44.422;26.092;2023-05-17T05:35:21;11.80;90.80
10447;DHT22;5271;44.422;26.092;2023-05-17T05:37:53;11.80;90.80
10447;DHT22;5271;44.422;26.092;2023-05-17T05:40:20;11.80;90.70
10447;DHT22;5271;44.422;26.092;2023-05-17T05:42:48;11.80;90.80
10447;DHT22;5271;44.422;26.092;2023-05-17T05:45:16;11.80;90.70
10447;DHT22;5271;44.422;26.092;2023-05-17T05:47:42;11.80;90.70
10447;DHT22;5271;44.422;26.092;2023-05-17T05:50:09;11.90;90.80
10447;DHT22;5271;44.422;26.092;2023-05-17T05:52:36;11.90;90.80
10447;DHT22;5271;44.422;26.092;2023-05-17T05:55:04;11.90;90.80
10447;DHT22;5271;44.422;26.092;2023-05-17T05:57:31;12.00;90.80
10447;DHT22;5271;44.422;26.092;2023-05-17T05:59:59;11.90;90.80
10447;DHT22;5271;44.422;26.092;2023-05-17T06:02:26;11.90;90.80
10447;DHT22;5271;44.422;26.092;2023-05-17T06:04:53;12.00;90.80
10447;DHT22;5271;44.422;26.092;2023-05-17T06:07:19;12.00;90.90
10447;DHT22;5271;44.422;26.092;2023-05-17T06:09:46;12.00;90.90
10447;DHT22;5271;44.422;26.092;2023-05-17T06:12:13;12.00;90.90
10447;DHT22;5271;44.422;26.092;2023-05-17T06:14:40;12.10;90.80
10447;DHT22;5271;44.422;26.092;2023-05-17T06:17:09;12.10;90.70
10447;DHT22;5271;44.422;26.092;2023-05-17T06:19:36;12.10;90.80
10447;DHT22;5271;44.422;26.092;2023-05-17T06:22:03;12.10;90.80
10447;DHT22;5271;44.422;26.092;2023-05-17T06:24:30;12.10;90.80
10447;DHT22;5271;44.422;26.092;2023-05-17T06:26:57;12.10;90.70
10447;DHT22;5271;44.422;26.092;2023-05-17T06:29:23;12.10;90.80
10447;DHT22;5271;44.422;26.092;2023-05-17T06:31:50;12.10;90.80
10447;DHT22;5271;44.422;26.092;2023-05-17T06:34:19;12.20;90.80
10447;DHT22;5271;44.422;26.092;2023-05-17T06:36:46;12.20;90.80
10447;DHT22;5271;44.422;26.092;2023-05-17T06:39:13;12.20;90.70
10447;DHT22;5271;44.422;26.092;2023-05-17T06:41:40;12.20;90.70
10447;DHT22;5271;44.422;26.092;2023-05-17T06:44:07;12.30;90.70
10447;DHT22;5271;44.422;26.092;2023-05-17T06:46:34;12.30;90.70
10447;DHT22;5271;44.422;26.092;2023-05-17T06:49:00;12.40;90.50
10447;DHT22;5271;44.422;26.092;2023-05-17T06:51:29;12.40;90.50
10447;DHT22;5271;44.422;26.092;2023-05-17T06:53:56;12.50;90.50
10447;DHT22;5271;44.422;26.092;2023-05-17T06:56:23;12.60;90.40
10447;DHT22;5271;44.422;26.092;2023-05-17T06:58:50;12.60;90.20
10447;DHT22;5271;44.422;26.092;2023-05-17T07:01:17;12.70;90.50
10447;DHT22;5271;44.422;26.092;2023-05-17T07:03:44;12.70;90.20
10447;DHT22;5271;44.422;26.092;2023-05-17T07:06:11;12.80;90.30
10447;DHT22;5271;44.422;26.092;2023-05-17T07:08:39;12.80;90.10
10447;DHT22;5271;44.422;26.092;2023-05-17T07:11:06;12.90;90.10
10447;DHT22;5271;44.422;26.092;2023-05-17T07:13:33;13.00;90.10
10447;DHT22;5271;44.422;26.092;2023-05-17T07:16:00;13.20;90.20
10447;DHT22;5271;44.422;26.092;2023-05-17T07:18:27;13.50;89.90
10447;DHT22;5271;44.422;26.092;2023-05-17T07:20:54;13.90;87.70
10447;DHT22;5271;44.422;26.092;2023-05-17T07:23:20;14.40;88.10
10447;DHT22;5271;44.422;26.092;2023-05-17T07:25:49;14.80;86.90
10447;DHT22;5271;44.422;26.092;2023-05-17T07:28:16;15.10;84.00
10447;DHT22;5271;44.422;26.092;2023-05-17T07:30:42;15.40;83.80
10447;DHT22;5271;44.422;26.092;2023-05-17T07:33:09;15.40;83.00
10447;DHT22;5271;44.422;26.092;2023-05-17T07:35:37;15.30;82.80
10447;DHT22;5271;44.422;26.092;2023-05-17T07:38:03;15.20;84.10
10447;DHT22;5271;44.422;26.092;2023-05-17T07:40:30;15.00;83.90
10447;DHT22;5271;44.422;26.092;2023-05-17T07:42:58;15.00;84.50
10447;DHT22;5271;44.422;26.092;2023-05-17T07:45:25;14.90;84.00
10447;DHT22;5271;44.422;26.092;2023-05-17T07:47:52;14.90;84.20
10447;DHT22;5271;44.422;26.092;2023-05-17T07:50:19;14.90;84.40
10447;DHT22;5271;44.422;26.092;2023-05-17T07:52:46;14.90;84.60
10447;DHT22;5271;44.422;26.092;2023-05-17T07:55:13;14.90;84.20
10447;DHT22;5271;44.422;26.092;2023-05-17T07:57:40;15.00;84.60
10447;DHT22;5271;44.422;26.092;2023-05-17T08:00:10;15.00;84.10
10447;DHT22;5271;44.422;26.092;2023-05-17T08:02:38;15.10;84.10
10447;DHT22;5271;44.422;26.092;2023-05-17T08:05:05;15.10;84.30
10447;DHT22;5271;44.422;26.092;2023-05-17T08:07:32;15.20;84.10
10447;DHT22;5271;44.422;26.092;2023-05-17T08:09:59;15.30;83.60
10447;DHT22;5271;44.422;26.092;2023-05-17T08:12:26;15.40;83.20
10447;DHT22;5271;44.422;26.092;2023-05-17T08:14:53;15.40;83.30
10447;DHT22;5271;44.422;26.092;2023-05-17T08:17:21;15.50;83.60
10447;DHT22;5271;44.422;26.092;2023-05-17T08:19:48;15.60;82.30
10447;DHT22;5271;44.422;26.092;2023-05-17T08:22:15;15.70;82.30
10447;DHT22;5271;44.422;26.092;2023-05-17T08:24:42;15.70;82.20
10447;DHT22;5271;44.422;26.092;2023-05-17T08:27:10;15.70;82.40
10447;DHT22;5271;44.422;26.092;2023-05-17T08:29:37;15.80;82.20
10447;DHT22;5271;44.422;26.092;2023-05-17T08:32:04;15.80;81.80
10447;DHT22;5271;44.422;26.092;2023-05-17T08:34:32;15.90;82.10
10447;DHT22;5271;44.422;26.092;2023-05-17T08:36:59;16.00;81.70
10447;DHT22;5271;44.422;26.092;2023-05-17T08:39:26;16.10;81.40
10447;DHT22;5271;44.422;26.092;2023-05-17T08:41:53;16.20;80.80
10447;DHT22;5271;44.422;26.092;2023-05-17T08:44:25;16.30;81.30
10447;DHT22;5271;44.422;26.092;2023-05-17T08:46:53;16.30;80.50
10447;DHT22;5271;44.422;26.092;2023-05-17T08:49:24;16.40;79.90
10447;DHT22;5271;44.422;26.092;2023-05-17T08:51:56;16.40;79.20
10447;DHT22;5271;44.422;26.092;2023-05-17T08:54:23;16.40;79.40
10447;DHT22;5271;44.422;26.092;2023-05-17T08:56:52;16.40;79.70
10447;DHT22;5271;44.422;26.092;2023-05-17T08:59:21;16.50;79.20
10447;DHT22;5271;44.422;26.092;2023-05-17T09:01:49;16.50;78.90
10447;DHT22;5271;44.422;26.092;2023-05-17T09:04:17;16.60;79.30
10447;DHT22;5271;44.422;26.092;2023-05-17T09:06:44;16.80;79.00
10447;DHT22;5271;44.422;26.092;2023-05-17T09:09:12;16.90;78.60
10447;DHT22;5271;44.422;26.092;2023-05-17T09:11:40;16.90;78.20
10447;DHT22;5271;44.422;26.092;2023-05-17T09:14:07;17.00;78.40
10447;DHT22;5271;44.422;26.092;2023-05-17T09:16:35;17.10;77.80
10447;DHT22;5271;44.422;26.092;2023-05-17T09:19:03;17.20;78.10
10447;DHT22;5271;44.422;26.092;2023-05-17T09:21:31;17.20;77.30
10447;DHT22;5271;44.422;26.092;2023-05-17T09:23:58;17.30;77.70
10447;DHT22;5271;44.422;26.092;2023-05-17T09:26:36;17.40;77.40
10447;DHT22;5271;44.422;26.092;2023-05-17T09:29:07;17.40;76.80
10447;DHT22;5271;44.422;26.092;2023-05-17T09:31:34;17.50;76.50
10447;DHT22;5271;44.422;26.092;2023-05-17T09:34:01;17.50;76.90
10447;DHT22;5271;44.422;26.092;2023-05-17T09:36:28;17.50;76.50
10447;DHT22;5271;44.422;26.092;2023-05-17T09:38:56;17.50;76.20
10447;DHT22;5271;44.422;26.092;2023-05-17T09:41:27;17.40;76.50
10447;DHT22;5271;44.422;26.092;2023-05-17T09:43:58;17.40;76.40
10447;DHT22;5271;44.422;26.092;2023-05-17T09:46:25;17.40;77.00
10447;DHT22;5271;44.422;26.092;2023-05-17T09:48:53;17.40;77.00
10447;DHT22;5271;44.422;26.092;2023-05-17T09:51:33;17.60;77.10
10447;DHT22;5271;44.422;26.092;2023-05-17T09:54:00;17.70;75.90
10447;DHT22;5271;44.422;26.092;2023-05-17T09:56:29;17.80;75.70
10447;DHT22;5271;44.422;26.092;2023-05-17T09:58:56;17.90;76.10
10447;DHT22;5271;44.422;26.092;2023-05-17T10:01:26;17.90;75.70
10447;DHT22;5271;44.422;26.092;2023-05-17T10:03:54;18.00;75.40
10447;DHT22;5271;44.422;26.092;2023-05-17T10:06:21;18.00;75.40
10447;DHT22;5271;44.422;26.092;2023-05-17T10:08:52;18.10;75.50
10447;DHT22;5271;44.422;26.092;2023-05-17T10:11:25;18.20;75.10
10447;DHT22;5271;44.422;26.092;2023-05-17T10:14:04;18.20;74.30
10447;DHT22;5271;44.422;26.092;2023-05-17T10:16:34;18.20;74.00
10447;DHT22;5271;44.422;26.092;2023-05-17T10:19:01;18.20;74.20
10447;DHT22;5271;44.422;26.092;2023-05-17T10:21:29;18.30;73.90
10447;DHT22;5271;44.422;26.092;2023-05-17T10:23:57;18.30;73.80
10447;DHT22;5271;44.422;26.092;2023-05-17T10:26:26;18.20;74.00
10447;DHT22;5271;44.422;26.092;2023-05-17T10:28:58;18.30;74.60
10447;DHT22;5271;44.422;26.092;2023-05-17T10:31:28;18.30;74.70
10447;DHT22;5271;44.422;26.092;2023-05-17T10:33:55;18.40;73.50
10447;DHT22;5271;44.422;26.092;2023-05-17T10:36:23;18.50;73.50
10447;DHT22;5271;44.422;26.092;2023-05-17T10:38:51;18.50;73.20
10447;DHT22;5271;44.422;26.092;2023-05-17T10:41:21;18.40;72.90
10447;DHT22;5271;44.422;26.092;2023-05-17T10:43:48;18.30;72.70
10447;DHT22;5271;44.422;26.092;2023-05-17T10:46:18;18.30;72.90
10447;DHT22;5271;44.422;26.092;2023-05-17T10:48:47;18.30;73.00
10447;DHT22;5271;44.422;26.092;2023-05-17T10:51:21;18.50;73.20
10447;DHT22;5271;44.422;26.092;2023-05-17T10:54:07;18.70;73.40
10447;DHT22;5271;44.422;26.092;2023-05-17T10:56:34;18.90;73.00
10447;DHT22;5271;44.422;26.092;2023-05-17T10:59:17;19.00;72.90
10447;DHT22;5271;44.422;26.092;2023-05-17T11:01:56;19.10;71.60
10447;DHT22;5271;44.422;26.092;2023-05-17T11:04:25;19.10;71.20
10447;DHT22;5271;44.422;26.092;2023-05-17T11:06:54;19.10;71.50
10447;DHT22;5271;44.422;26.092;2023-05-17T11:09:41;19.10;71.00
10447;DHT22;5271;44.422;26.092;2023-05-17T11:12:09;19.10;71.00
10447;DHT22;5271;44.422;26.092;2023-05-17T11:14:46;19.10;70.50
10447;DHT22;5271;44.422;26.092;2023-05-17T11:17:16;19.10;69.90
10447;DHT22;5271;44.422;26.092;2023-05-17T11:20:05;19.10;69.30
10447;DHT22;5271;44.422;26.092;2023-05-17T11:22:37;19.10;69.20
10447;DHT22;5271;44.422;26.092;2023-05-17T11:25:08;19.00;69.80
10447;DHT22;5271;44.422;26.092;2023-05-17T11:27:37;19.00;69.50
10447;DHT22;5271;44.422;26.092;2023-05-17T11:30:09;19.10;69.20
10447;DHT22;5271;44.422;26.092;2023-05-17T11:32:37;19.10;69.20
10447;DHT22;5271;44.422;26.092;2023-05-17T11:35:05;19.00;69.40
10447;DHT22;5271;44.422;26.092;2023-05-17T11:37:32;18.90;69.00
10447;DHT22;5271;44.422;26.092;2023-05-17T11:40:03;18.90;69.30
10447;DHT22;5271;44.422;26.092;2023-05-17T11:42:31;18.90;68.90
10447;DHT22;5271;44.422;26.092;2023-05-17T11:45:00;18.90;68.50
10447;DHT22;5271;44.422;26.092;2023-05-17T11:47:28;18.90;68.00
10447;DHT22;5271;44.422;26.092;2023-05-17T11:50:00;18.90;67.80
10447;DHT22;5271;44.422;26.092;2023-05-17T11:52:27;18.90;67.20
10447;DHT22;5271;44.422;26.092;2023-05-17T11:54:55;19.00;67.50
10447;DHT22;5271;44.422;26.092;2023-05-17T11:57:28;19.00;67.20
10447;DHT22;5271;44.422;26.092;2023-05-17T11:59:58;19.00;67.50
10447;DHT22;5271;44.422;26.092;2023-05-17T12:02:26;18.90;67.70
10447;DHT22;5271;44.422;26.092;2023-05-17T12:04:53;18.90;67.20
10447;DHT22;5271;44.422;26.092;2023-05-17T12:07:22;18.90;67.50
10447;DHT22;5271;44.422;26.092;2023-05-17T12:09:50;18.80;67.10
10447;DHT22;5271;44.422;26.092;2023-05-17T12:12:18;18.80;67.00
10447;DHT22;5271;44.422;26.092;2023-05-17T12:14:47;18.80;67.10
10447;DHT22;5271;44.422;26.092;2023-05-17T12:17:21;18.70;67.40
10447;DHT22;5271;44.422;26.092;2023-05-17T12:19:51;18.70;67.60
10447;DHT22;5271;44.422;26.092;2023-05-17T12:22:19;18.70;67.80
10447;DHT22;5271;44.422;26.092;2023-05-17T12:24:47;18.70;66.80
10447;DHT22;5271;44.422;26.092;2023-05-17T12:27:23;18.70;67.10
10447;DHT22;5271;44.422;26.092;2023-05-17T12:29:51;18.60;67.20
10447;DHT22;5271;44.422;26.092;2023-05-17T12:32:18;18.60;67.00
10447;DHT22;5271;44.422;26.092;2023-05-17T12:34:45;18.60;67.00
10447;DHT22;5271;44.422;26.092;2023-05-17T12:37:14;18.60;66.80
10447;DHT22;5271;44.422;26.092;2023-05-17T12:39:41;18.60;66.40
10447;DHT22;5271;44.422;26.092;2023-05-17T12:42:09;18.60;66.30
10447;DHT22;5271;44.422;26.092;2023-05-17T12:44:36;18.60;66.10
10447;DHT22;5271;44.422;26.092;2023-05-17T12:47:03;18.70;66.20
10447;DHT22;5271;44.422;26.092;2023-05-17T12:49:30;18.70;66.20
10447;DHT22;5271;44.422;26.092;2023-05-17T12:52:03;18.80;65.90
10447;DHT22;5271;44.422;26.092;2023-05-17T12:54:30;18.80;66.10
10447;DHT22;5271;44.422;26.092;2023-05-17T12:57:07;18.70;66.30
10447;DHT22;5271;44.422;26.092;2023-05-17T12:59:45;18.80;66.50
10447;DHT22;5271;44.422;26.092;2023-05-17T13:02:12;18.80;66.00
10447;DHT22;5271;44.422;26.092;2023-05-17T13:04:39;18.80;66.00
10447;DHT22;5271;44.422;26.092;2023-05-17T13:07:06;18.90;66.00
10447;DHT22;5271;44.422;26.092;2023-05-17T13:09:33;18.90;64.60
10447;DHT22;5271;44.422;26.092;2023-05-17T13:12:03;18.80;65.00
10447;DHT22;5271;44.422;26.092;2023-05-17T13:14:39;18.80;65.10
10447;DHT22;5271;44.422;26.092;2023-05-17T13:17:08;18.90;65.50
10447;DHT22;5271;44.422;26.092;2023-05-17T13:19:35;18.90;65.60
10447;DHT22;5271;44.422;26.092;2023-05-17T13:22:03;18.80;65.80
10447;DHT22;5271;44.422;26.092;2023-05-17T13:24:32;18.80;65.70
10447;DHT22;5271;44.422;26.092;2023-05-17T13:26:59;18.80;66.30
10447;DHT22;5271;44.422;26.092;2023-05-17T13:29:27;18.80;65.90
10447;DHT22;5271;44.422;26.092;2023-05-17T13:31:55;18.80;65.80
10447;DHT22;5271;44.422;26.092;2023-05-17T13:34:22;18.80;66.00
10447;DHT22;5271;44.422;26.092;2023-05-17T13:36:49;18.80;66.30
10447;DHT22;5271;44.422;26.092;2023-05-17T13:39:16;18.70;66.30
10447;DHT22;5271;44.422;26.092;2023-05-17T13:41:43;18.70;66.70
10447;DHT22;5271;44.422;26.092;2023-05-17T13:44:09;18.70;66.40
10447;DHT22;5271;44.422;26.092;2023-05-17T13:46:36;18.60;65.70
10447;DHT22;5271;44.422;26.092;2023-05-17T13:49:04;18.60;65.50
10447;DHT22;5271;44.422;26.092;2023-05-17T13:51:32;18.50;65.20
10447;DHT22;5271;44.422;26.092;2023-05-17T13:54:02;18.50;65.10
10447;DHT22;5271;44.422;26.092;2023-05-17T13:56:29;18.40;64.90
10447;DHT22;5271;44.422;26.092;2023-05-17T13:58:56;18.40;65.10
10447;DHT22;5271;44.422;26.092;2023-05-17T14:01:23;18.50;65.50
10447;DHT22;5271;44.422;26.092;2023-05-17T14:03:50;18.50;65.40
10447;DHT22;5271;44.422;26.092;2023-05-17T14:06:19;18.50;66.40
10447;DHT22;5271;44.422;26.092;2023-05-17T14:08:45;18.50;65.70
10447;DHT22;5271;44.422;26.092;2023-05-17T14:11:12;18.50;65.60
10447;DHT22;5271;44.422;26.092;2023-05-17T14:13:39;18.60;65.50
10447;DHT22;5271;44.422;26.092;2023-05-17T14:16:07;18.60;65.60
10447;DHT22;5271;44.422;26.092;2023-05-17T14:18:33;18.70;65.20
10447;DHT22;5271;44.422;26.092;2023-05-17T14:21:00;18.60;65.30
10447;DHT22;5271;44.422;26.092;2023-05-17T14:23:29;18.60;65.50
10447;DHT22;5271;44.422;26.092;2023-05-17T14:25:56;18.60;65.90
10447;DHT22;5271;44.422;26.092;2023-05-17T14:28:23;18.50;65.80
10447;DHT22;5271;44.422;26.092;2023-05-17T14:30:50;18.50;65.90
10447;DHT22;5271;44.422;26.092;2023-05-17T14:33:17;18.50;65.80
10447;DHT22;5271;44.422;26.092;2023-05-17T14:35:44;18.40;65.70
10447;DHT22;5271;44.422;26.092;2023-05-17T14:38:11;18.40;66.00
10447;DHT22;5271;44.422;26.092;2023-05-17T14:40:40;18.40;66.10
10447;DHT22;5271;44.422;26.092;2023-05-17T14:43:06;18.50;65.60
10447;DHT22;5271;44.422;26.092;2023-05-17T14:45:33;18.40;66.00
10447;DHT22;5271;44.422;26.092;2023-05-17T14:48:00;18.50;66.50
10447;DHT22;5271;44.422;26.092;2023-05-17T14:50:27;18.40;66.80
10447;DHT22;5271;44.422;26.092;2023-05-17T14:52:57;18.50;67.20
10447;DHT22;5271;44.422;26.092;2023-05-17T14:55:24;18.50;66.80
10447;DHT22;5271;44.422;26.092;2023-05-17T14:57:53;18.50;66.30
10447;DHT22;5271;44.422;26.092;2023-05-17T15:00:20;18.40;66.80
10447;DHT22;5271;44.422;26.092;2023-05-17T15:02:47;18.50;67.00
10447;DHT22;5271;44.422;26.092;2023-05-17T15:05:14;18.50;67.30
10447;DHT22;5271;44.422;26.092;2023-05-17T15:07:41;18.50;66.80
10447;DHT22;5271;44.422;26.092;2023-05-17T15:10:08;18.50;67.00
10447;DHT22;5271;44.422;26.092;2023-05-17T15:12:37;18.50;67.40
10447;DHT22;5271;44.422;26.092;2023-05-17T15:15:07;18.60;67.80
10447;DHT22;5271;44.422;26.092;2023-05-17T15:17:34;18.50;67.90
10447;DHT22;5271;44.422;26.092;2023-05-17T15:20:01;18.50;67.20
10447;DHT22;5271;44.422;26.092;2023-05-17T15:22:28;18.50;67.40
10447;DHT22;5271;44.422;26.092;2023-05-17T15:24:54;18.40;67.30
10447;DHT22;5271;44.422;26.092;2023-05-17T15:27:22;18.50;67.60
10447;DHT22;5271;44.422;26.092;2023-05-17T15:29:49;18.40;67.50
10447;DHT22;5271;44.422;26.092;2023-05-17T15:32:17;18.40;67.30
10447;DHT22;5271;44.422;26.092;2023-05-17T15:34:44;18.40;67.20
10447;DHT22;5271;44.422;26.092;2023-05-17T15:37:11;18.40;67.40